Time;durP1;ratioP1;P1;durP2;ratioP2;P2;SDS_P1;SDS_P2;PMS_P1;PMS_P2;Temp;Humidity;BMP_temperature;BMP_pressure;BME280_temperature;BME280_humidity;BME280_pressure;Samples;Min_cycle;Max_cycle;Signal;HPM_P1;HPM_P2
2023/12/27 00:00:45;;;;;;;1.73;0.70;;;20.50;47.90;;;;;;10465884;28;20450;-44
2023/12/27 00:05:48;;;;;;;0.77;0.63;;;20.40;48.00;;;;;;10477422;28;20139;-44
2023/12/27 00:10:50;;;;;;;1.42;0.60;;;20.30;48.30;;;;;;10466261;28;20136;-44
2023/12/27 00:15:51;;;;;;;0.70;0.52;;;20.30;48.50;;;;;;10465495;28;20463;-44
2023/12/27 00:20:54;;;;;;;1.48;0.70;;;20.40;48.20;;;;;;10465889;28;20131;-46
2023/12/27 00:25:57;;;;;;;1.25;0.63;;;20.30;48.10;;;;;;10473867;28;20137;-44
2023/12/27 00:30:59;;;;;;;1.42;0.70;;;20.30;48.10;;;;;;10484673;28;20055;-44
2023/12/27 00:36:02;;;;;;;1.15;0.70;;;20.10;48.30;;;;;;10466129;28;20148;-45
2023/12/27 00:41:04;;;;;;;2.20;0.60;;;20.10;48.40;;;;;;10468505;28;20646;-45
2023/12/27 00:46:06;;;;;;;1.00;0.60;;;20.10;48.40;;;;;;10467988;28;20048;-48
2023/12/27 00:51:17;;;;;;;1.80;0.70;;;20.10;48.30;;;;;;10464771;28;20578;-48
2023/12/27 00:56:19;;;;;;;1.92;0.77;;;20.10;48.10;;;;;;10474392;28;20585;-44
2023/12/27 01:01:20;;;;;;;0.98;0.60;;;20.10;48.30;;;;;;10464193;28;20136;-48
2023/12/27 01:06:23;;;;;;;1.17;0.60;;;20.00;48.40;;;;;;10465933;28;20143;-45
2023/12/27 01:11:27;;;;;;;1.42;0.60;;;20.00;48.40;;;;;;10470392;28;20155;-47
2023/12/27 01:16:29;;;;;;;1.40;0.70;;;19.90;48.40;;;;;;10471436;28;20053;-44
2023/12/27 01:21:32;;;;;;;2.08;0.70;;;19.90;48.40;;;;;;10466548;28;20566;-45
2023/12/27 01:26:33;;;;;;;0.90;0.50;;;19.80;48.40;;;;;;10462192;28;20119;-44
2023/12/27 01:31:35;;;;;;;0.75;0.40;;;19.80;48.60;;;;;;10468806;28;20076;-44
2023/12/27 01:36:38;;;;;;;1.13;0.60;;;19.80;48.50;;;;;;10474008;28;20143;-44
2023/12/27 01:41:39;;;;;;;1.05;0.68;;;19.70;48.70;;;;;;10469161;28;20140;-49
2023/12/27 01:46:41;;;;;;;0.82;0.50;;;19.60;48.70;;;;;;10465577;28;20562;-52
2023/12/27 01:51:44;;;;;;;0.65;0.50;;;19.60;48.60;;;;;;10461269;28;20501;-47
2023/12/27 01:56:46;;;;;;;0.85;0.60;;;19.50;48.90;;;;;;10464772;28;20131;-45
2023/12/27 02:01:47;;;;;;;1.42;0.60;;;19.50;48.80;;;;;;10472769;28;20131;-47
2023/12/27 02:06:50;;;;;;;0.52;0.50;;;19.40;49.10;;;;;;10473094;28;20071;-44
2023/12/27 02:11:52;;;;;;;0.88;0.60;;;19.50;48.80;;;;;;10474421;28;20128;-45
2023/12/27 02:16:53;;;;;;;0.93;0.52;;;19.40;48.80;;;;;;10470134;28;20131;-44
2023/12/27 02:21:56;;;;;;;0.57;0.43;;;19.30;49.00;;;;;;10473778;28;20131;-44
2023/12/27 02:26:59;;;;;;;0.50;0.45;;;19.40;48.90;;;;;;10477797;28;20048;-44
2023/12/27 02:32:01;;;;;;;1.05;0.68;;;19.40;48.60;;;;;;10465684;28;20669;-47
2023/12/27 02:37:03;;;;;;;0.77;0.43;;;19.30;48.90;;;;;;10468786;28;20152;-44
2023/12/27 02:42:06;;;;;;;0.98;0.55;;;19.30;48.70;;;;;;10470619;28;20132;-44
2023/12/27 02:47:08;;;;;;;1.20;0.55;;;19.20;48.90;;;;;;10479510;28;20143;-47
2023/12/27 02:52:09;;;;;;;1.70;0.70;;;19.10;49.10;;;;;;10480727;28;20131;-48
2023/12/27 02:57:13;;;;;;;1.05;0.47;;;19.20;49.60;;;;;;10467479;28;20143;-44
2023/12/27 03:02:14;;;;;;;1.10;0.50;;;19.10;49.40;;;;;;10465810;28;20041;-45
2023/12/27 03:07:16;;;;;;;0.95;0.60;;;19.00;49.50;;;;;;10464072;28;20141;-46
2023/12/27 03:12:19;;;;;;;1.08;0.40;;;19.00;49.50;;;;;;10476033;28;20514;-44
2023/12/27 03:17:20;;;;;;;0.75;0.40;;;18.90;49.60;;;;;;10478997;28;20087;-47
2023/12/27 03:22:22;;;;;;;1.13;0.50;;;19.00;49.60;;;;;;10470952;28;20152;-46
2023/12/27 03:27:25;;;;;;;0.65;0.50;;;19.00;49.70;;;;;;10472003;28;20151;-44
2023/12/27 03:32:27;;;;;;;0.75;0.52;;;19.00;49.50;;;;;;10470636;28;20492;-44
2023/12/27 03:37:28;;;;;;;1.75;0.55;;;19.00;49.70;;;;;;10469764;28;20160;-44
2023/12/27 03:42:31;;;;;;;0.77;0.40;;;18.90;49.70;;;;;;10463255;28;20144;-47
2023/12/27 03:47:33;;;;;;;0.90;0.63;;;18.90;49.90;;;;;;10467118;28;20052;-44
2023/12/27 03:52:35;;;;;;;0.60;0.50;;;18.90;50.60;;;;;;10472219;28;20044;-44
2023/12/27 03:57:38;;;;;;;0.70;0.50;;;19.00;49.80;;;;;;10474617;28;20136;-46
2023/12/27 04:02:39;;;;;;;0.70;0.50;;;18.90;50.00;;;;;;10480545;28;20135;-45
2023/12/27 04:07:41;;;;;;;0.90;0.55;;;19.00;49.80;;;;;;10469068;28;20135;-45
2023/12/27 04:12:44;;;;;;;1.10;0.40;;;19.40;48.40;;;;;;10465358;28;20090;-44
2023/12/27 04:17:46;;;;;;;0.50;0.50;;;20.00;47.30;;;;;;10467716;28;20155;-45
2023/12/27 04:22:47;;;;;;;0.93;0.50;;;20.10;47.30;;;;;;10471825;28;20131;-46
2023/12/27 04:27:50;;;;;;;1.00;0.38;;;20.20;47.70;;;;;;10476083;28;20163;-46
2023/12/27 04:32:52;;;;;;;0.57;0.50;;;19.90;49.10;;;;;;10471407;28;20128;-46
2023/12/27 04:37:54;;;;;;;0.55;0.45;;;20.10;49.10;;;;;;10468862;28;20679;-44
2023/12/27 04:42:57;;;;;;;0.38;0.38;;;20.20;49.00;;;;;;10477069;28;20127;-44
2023/12/27 04:47:58;;;;;;;0.52;0.40;;;20.30;49.50;;;;;;10468913;28;20123;-44
2023/12/27 04:53:00;;;;;;;0.60;0.45;;;20.40;48.60;;;;;;10465614;28;20147;-45
2023/12/27 04:58:03;;;;;;;0.60;0.40;;;20.40;48.50;;;;;;10462551;28;20135;-45
2023/12/27 05:03:05;;;;;;;0.80;0.50;;;20.40;48.50;;;;;;10465505;28;20132;-44
2023/12/27 05:08:06;;;;;;;0.50;0.40;;;20.60;47.90;;;;;;10475475;28;20509;-47
2023/12/27 05:13:09;;;;;;;0.40;0.30;;;20.60;48.00;;;;;;10477035;28;20127;-46
2023/12/27 05:18:11;;;;;;;0.63;0.50;;;20.60;48.20;;;;;;10468695;28;20140;-45
2023/12/27 05:23:13;;;;;;;0.82;0.52;;;20.60;48.20;;;;;;10467602;28;20139;-44
2023/12/27 05:28:16;;;;;;;0.55;0.40;;;20.70;48.10;;;;;;10467805;28;20128;-46
2023/12/27 05:33:17;;;;;;;0.68;0.50;;;20.70;48.10;;;;;;10478948;28;20045;-45
2023/12/27 05:38:19;;;;;;;0.40;0.38;;;20.70;48.20;;;;;;10471983;28;20558;-48
2023/12/27 05:43:22;;;;;;;0.82;0.40;;;20.70;48.10;;;;;;10476703;28;20136;-44
2023/12/27 05:48:24;;;;;;;1.67;0.65;;;20.90;48.10;;;;;;10472940;28;20053;-48
2023/12/27 05:53:25;;;;;;;1.00;0.40;;;20.90;48.50;;;;;;10475594;28;20079;-45
2023/12/27 05:58:28;;;;;;;0.63;0.47;;;20.90;48.10;;;;;;10487707;28;20127;-44
2023/12/27 06:03:30;;;;;;;0.43;0.40;;;20.90;48.20;;;;;;10478540;28;20468;-47
2023/12/27 06:08:32;;;;;;;0.50;0.40;;;20.90;48.30;;;;;;10471147;28;20076;-45
2023/12/27 06:13:35;;;;;;;0.50;0.40;;;21.00;47.90;;;;;;10474637;28;20131;-44
2023/12/27 06:18:36;;;;;;;0.68;0.50;;;21.10;47.80;;;;;;10477370;28;20132;-46
2023/12/27 06:23:38;;;;;;;0.70;0.40;;;21.20;47.70;;;;;;10484318;28;20136;-45
2023/12/27 06:28:43;;;;;;;0.40;0.35;;;21.10;47.70;;;;;;10472125;28;20136;-45
2023/12/27 06:33:44;;;;;;;0.70;0.40;;;21.20;47.30;;;;;;10472036;28;20123;-45
2023/12/27 06:38:46;;;;;;;1.40;0.50;;;21.30;47.20;;;;;;10479000;28;20139;-47
2023/12/27 06:43:49;;;;;;;0.63;0.40;;;21.30;47.20;;;;;;10476259;28;20045;-46
2023/12/27 06:48:51;;;;;;;0.70;0.40;;;21.30;46.90;;;;;;10475996;28;20131;-47
2023/12/27 06:53:52;;;;;;;0.73;0.50;;;21.40;46.60;;;;;;10472031;28;20168;-47
2023/12/27 06:58:55;;;;;;;0.75;0.45;;;21.30;47.00;;;;;;10475919;28;20606;-46
2023/12/27 07:03:57;;;;;;;0.50;0.40;;;21.30;46.70;;;;;;10474145;28;20131;-47
2023/12/27 07:08:59;;;;;;;0.60;0.47;;;21.20;46.90;;;;;;10480417;28;20136;-46
2023/12/27 07:14:02;;;;;;;0.73;0.35;;;21.40;46.50;;;;;;10477976;28;20546;-46
2023/12/27 07:19:03;;;;;;;0.55;0.40;;;21.50;46.00;;;;;;10477802;28;20452;-47
2023/12/27 07:24:06;;;;;;;0.43;0.40;;;21.50;45.80;;;;;;10473221;28;20118;-46
2023/12/27 07:29:09;;;;;;;0.57;0.30;;;21.50;45.70;;;;;;10473423;28;20048;-45
2023/12/27 07:34:11;;;;;;;1.02;0.50;;;21.50;45.90;;;;;;10469198;28;20048;-46
2023/12/27 07:39:13;;;;;;;0.30;0.30;;;21.40;45.90;;;;;;10471939;28;20139;-46
2023/12/27 07:44:16;;;;;;;0.70;0.50;;;21.10;46.30;;;;;;10469166;28;20098;-46
2023/12/27 07:49:18;;;;;;;0.50;0.30;;;20.70;47.20;;;;;;10474404;28;20044;-46
2023/12/27 07:54:21;;;;;;;0.85;0.30;;;20.70;47.10;;;;;;10476630;28;20052;-47
2023/12/27 07:59:25;;;;;;;0.43;0.43;;;20.90;46.70;;;;;;10472004;28;20112;-46
2023/12/27 08:04:26;;;;;;;0.50;0.40;;;21.00;46.10;;;;;;10469444;28;20059;-49
2023/12/27 08:09:29;;;;;;;0.52;0.43;;;20.90;46.10;;;;;;10473675;28;20135;-48
2023/12/27 08:14:32;;;;;;;0.47;0.30;;;21.10;45.90;;;;;;10475268;28;20053;-46
2023/12/27 08:19:35;;;;;;;0.85;0.47;;;21.00;45.90;;;;;;10481322;28;20160;-46
2023/12/27 08:24:36;;;;;;;0.60;0.50;;;20.90;46.10;;;;;;10467796;28;20044;-46
2023/12/27 08:29:41;;;;;;;0.40;0.40;;;20.90;46.10;;;;;;10470274;28;20469;-46
2023/12/27 08:34:42;;;;;;;0.60;0.30;;;20.80;46.10;;;;;;10473544;28;20045;-48
2023/12/27 08:39:44;;;;;;;0.68;0.40;;;20.90;46.70;;;;;;10468760;28;20144;-45
2023/12/27 08:44:47;;;;;;;0.65;0.40;;;20.80;46.10;;;;;;10472184;28;20041;-45
2023/12/27 08:49:48;;;;;;;1.02;0.47;;;20.80;46.50;;;;;;10461444;28;20676;-45
2023/12/27 08:54:50;;;;;;;0.55;0.40;;;20.50;47.00;;;;;;10468211;28;20037;-45
2023/12/27 08:59:53;;;;;;;0.40;0.30;;;20.50;47.20;;;;;;10471397;28;20076;-47
2023/12/27 09:04:55;;;;;;;0.40;0.40;;;20.40;47.20;;;;;;10474942;28;20158;-46
2023/12/27 09:09:56;;;;;;;0.80;0.50;;;20.10;48.00;;;;;;10473422;28;20049;-46
2023/12/27 09:14:59;;;;;;;0.70;0.50;;;19.90;48.40;;;;;;10471537;28;20120;-49
2023/12/27 09:20:01;;;;;;;0.68;0.40;;;19.80;48.90;;;;;;10471271;28;20128;-48
2023/12/27 09:25:04;;;;;;;0.30;0.30;;;19.70;48.80;;;;;;10473331;28;20150;-45
2023/12/27 09:30:08;;;;;;;0.82;0.50;;;19.70;48.90;;;;;;10483634;28;20052;-46
2023/12/27 09:35:09;;;;;;;0.70;0.60;;;19.70;49.20;;;;;;10474488;28;20478;-47
2023/12/27 09:40:12;;;;;;;0.52;0.50;;;19.50;49.40;;;;;;10478007;28;20147;-47
2023/12/27 09:45:16;;;;;;;0.60;0.40;;;19.50;49.20;;;;;;10481514;28;20048;-46
2023/12/27 09:50:19;;;;;;;0.93;0.52;;;19.60;49.10;;;;;;10478205;28;20053;-45
2023/12/27 09:55:20;;;;;;;0.73;0.60;;;19.60;48.90;;;;;;10474633;28;20052;-45
2023/12/27 10:00:23;;;;;;;0.70;0.43;;;19.50;49.10;;;;;;10470024;28;20082;-45
2023/12/27 10:05:27;;;;;;;0.80;0.50;;;19.60;49.00;;;;;;10475886;28;20152;-46
2023/12/27 10:10:30;;;;;;;0.55;0.40;;;19.40;49.40;;;;;;10474941;28;20140;-46
2023/12/27 10:15:33;;;;;;;0.68;0.47;;;19.40;49.50;;;;;;10476889;28;20041;-45
2023/12/27 10:20:36;;;;;;;0.43;0.40;;;19.30;50.30;;;;;;10474906;28;20147;-46
2023/12/27 10:25:40;;;;;;;0.60;0.43;;;19.30;49.70;;;;;;10470125;28;20071;-45
2023/12/27 10:30:44;;;;;;;0.30;0.30;;;19.30;49.70;;;;;;10465301;28;20071;-49
2023/12/27 10:35:46;;;;;;;1.02;0.60;;;19.30;49.50;;;;;;10471533;28;20475;-47
2023/12/27 10:40:47;;;;;;;0.47;0.30;;;19.20;49.70;;;;;;10469427;28;20140;-46
2023/12/27 10:45:50;;;;;;;1.50;0.55;;;19.20;49.90;;;;;;10471753;28;20132;-47
2023/12/27 10:50:52;;;;;;;0.52;0.40;;;19.20;49.70;;;;;;10477264;28;20132;-45
2023/12/27 10:55:53;;;;;;;0.73;0.50;;;19.30;49.70;;;;;;10471674;28;20148;-45
2023/12/27 11:00:56;;;;;;;0.77;0.40;;;19.10;50.00;;;;;;10484031;28;20135;-46
2023/12/27 11:05:58;;;;;;;0.40;0.30;;;19.10;50.00;;;;;;10463179;28;20131;-46
2023/12/27 11:11:00;;;;;;;0.60;0.30;;;19.10;50.00;;;;;;10477751;28;20578;-46
2023/12/27 11:16:03;;;;;;;0.55;0.40;;;19.10;50.00;;;;;;10468441;28;20075;-48
2023/12/27 11:21:05;;;;;;;0.68;0.50;;;19.00;50.20;;;;;;10473938;28;20139;-45
2023/12/27 11:26:07;;;;;;;0.52;0.43;;;19.00;50.10;;;;;;10478650;28;20622;-46
2023/12/27 11:31:09;;;;;;;0.82;0.50;;;19.00;49.80;;;;;;10469939;28;20139;-48
2023/12/27 11:36:11;;;;;;;0.40;0.40;;;19.00;50.10;;;;;;10466372;28;20163;-47
2023/12/27 11:41:14;;;;;;;0.47;0.40;;;19.10;49.80;;;;;;10470808;28;20095;-45
2023/12/27 11:46:23;;;;;;;0.45;0.40;;;18.90;50.20;;;;;;10470941;28;20132;-46
2023/12/27 11:51:26;;;;;;;0.60;0.40;;;18.90;50.40;;;;;;10479169;28;20128;-48
2023/12/27 11:56:29;;;;;;;0.30;0.30;;;18.90;50.30;;;;;;10467232;28;20499;-46
2023/12/27 12:01:34;;;;;;;1.48;0.47;;;18.90;50.40;;;;;;10468532;28;20049;-47
2023/12/27 12:07:11;;;;;;;1.08;0.52;;;18.90;50.40;;;;;;10471348;28;20677;-47
2023/12/27 12:12:16;;;;;;;0.50;0.40;;;18.90;50.30;;;;;;10460418;28;20136;-48
2023/12/27 12:17:19;;;;;;;0.50;0.50;;;18.90;50.40;;;;;;10464326;28;20140;-45
2023/12/27 12:22:20;;;;;;;1.00;0.50;;;18.90;50.40;;;;;;10472247;28;20135;-49
2023/12/27 12:27:22;;;;;;;0.70;0.50;;;18.90;50.20;;;;;;10468254;28;20223;-46
2023/12/27 12:32:25;;;;;;;0.68;0.50;;;18.90;50.10;;;;;;10475171;28;20139;-47
2023/12/27 12:37:27;;;;;;;0.55;0.40;;;18.90;49.90;;;;;;10467489;28;20052;-47
2023/12/27 12:42:29;;;;;;;0.63;0.43;;;19.00;49.90;;;;;;10461866;28;20051;-47
2023/12/27 12:47:32;;;;;;;0.85;0.40;;;18.90;50.20;;;;;;10465935;28;20116;-48
2023/12/27 12:52:36;;;;;;;0.65;0.40;;;19.00;49.90;;;;;;10467298;28;20072;-46
2023/12/27 12:57:37;;;;;;;0.82;0.60;;;19.10;49.30;;;;;;10471937;28;20052;-46
2023/12/27 13:02:40;;;;;;;0.60;0.47;;;19.00;49.50;;;;;;10469637;28;20164;-45
2023/12/27 13:07:42;;;;;;;0.80;0.50;;;18.90;49.80;;;;;;10468677;28;20136;-47
2023/12/27 13:12:43;;;;;;;0.47;0.47;;;18.90;49.90;;;;;;10467267;28;20048;-45
2023/12/27 13:17:48;;;;;;;0.90;0.45;;;18.90;49.90;;;;;;10463076;28;20472;-46
2023/12/27 13:22:49;;;;;;;0.75;0.50;;;18.80;50.20;;;;;;10471595;28;20052;-46
2023/12/27 13:27:51;;;;;;;0.60;0.50;;;19.10;49.30;;;;;;10466942;28;20127;-45
2023/12/27 13:32:54;;;;;;;0.43;0.40;;;19.50;48.50;;;;;;10472464;28;20072;-46
2023/12/27 13:37:55;;;;;;;0.32;0.32;;;19.50;48.60;;;;;;10469614;28;20550;-46
2023/12/27 13:42:57;;;;;;;1.00;0.60;;;19.40;49.00;;;;;;10479886;28;20141;-45
2023/12/27 13:48:00;;;;;;;0.80;0.50;;;19.40;48.70;;;;;;10469598;28;20136;-47
2023/12/27 13:53:02;;;;;;;0.60;0.40;;;19.10;49.50;;;;;;10467029;28;20120;-45
2023/12/27 13:58:04;;;;;;;0.47;0.40;;;19.20;49.20;;;;;;10469329;28;20080;-46
2023/12/27 14:03:09;;;;;;;0.80;0.50;;;19.00;49.80;;;;;;10473673;28;20131;-46
2023/12/27 14:08:11;;;;;;;0.50;0.50;;;19.10;49.60;;;;;;10473602;28;20056;-46
2023/12/27 14:13:13;;;;;;;0.45;0.40;;;19.30;49.90;;;;;;10477585;28;20049;-47
2023/12/27 14:18:16;;;;;;;0.45;0.30;;;19.50;49.70;;;;;;10474023;28;20440;-46
2023/12/27 14:23:17;;;;;;;0.60;0.40;;;19.50;49.90;;;;;;10472862;28;20094;-46
2023/12/27 14:28:19;;;;;;;0.80;0.50;;;19.50;49.70;;;;;;10478976;28;20044;-45
2023/12/27 14:33:22;;;;;;;0.55;0.50;;;19.70;49.80;;;;;;10466200;28;20135;-46
2023/12/27 14:38:24;;;;;;;0.85;0.50;;;19.70;49.90;;;;;;10470010;28;20458;-45
2023/12/27 14:43:25;;;;;;;0.65;0.40;;;19.70;49.70;;;;;;10469777;28;20082;-46
2023/12/27 14:48:32;;;;;;;1.65;0.50;;;19.90;49.40;;;;;;10480500;28;20144;-47
2023/12/27 14:53:33;;;;;;;0.77;0.50;;;20.00;49.20;;;;;;10482743;28;20040;-47
2023/12/27 14:58:35;;;;;;;0.77;0.50;;;20.00;49.30;;;;;;10470576;28;20132;-46
2023/12/27 15:03:38;;;;;;;0.50;0.50;;;19.90;49.60;;;;;;10466701;28;20156;-45
2023/12/27 15:08:39;;;;;;;0.52;0.50;;;20.00;49.40;;;;;;10470621;28;20139;-47
2023/12/27 15:13:41;;;;;;;0.93;0.50;;;20.00;49.30;;;;;;10472745;28;20128;-46
2023/12/27 15:18:44;;;;;;;0.80;0.50;;;20.10;49.30;;;;;;10481044;28;20047;-45
2023/12/27 15:23:46;;;;;;;1.33;0.55;;;20.10;49.20;;;;;;10469318;28;20467;-44
2023/12/27 15:28:48;;;;;;;0.63;0.50;;;20.20;49.20;;;;;;10470572;28;20995;-45
2023/12/27 15:33:51;;;;;;;0.73;0.57;;;20.20;49.20;;;;;;10471756;28;20048;-45
2023/12/27 15:38:55;;;;;;;0.75;0.50;;;20.20;49.20;;;;;;10472012;28;20135;-44
2023/12/27 15:43:58;;;;;;;0.63;0.50;;;20.30;49.00;;;;;;10478811;28;20076;-47
2023/12/27 15:49:01;;;;;;;0.95;0.50;;;20.40;49.00;;;;;;10471321;28;20564;-48
2023/12/27 15:54:03;;;;;;;1.00;0.43;;;20.40;48.90;;;;;;10465230;28;20044;-45
2023/12/27 15:59:05;;;;;;;0.90;0.50;;;20.40;48.90;;;;;;10468714;28;20072;-47
2023/12/27 16:04:08;;;;;;;0.55;0.40;;;20.50;48.80;;;;;;10478919;28;20143;-45
2023/12/27 16:09:10;;;;;;;0.40;0.40;;;20.50;48.70;;;;;;10474394;28;20172;-48
2023/12/27 16:14:12;;;;;;;1.00;0.50;;;20.50;48.80;;;;;;10466262;28;20541;-45
2023/12/27 16:19:17;;;;;;;0.65;0.60;;;20.60;48.60;;;;;;10472327;28;20059;-45
2023/12/27 16:24:19;;;;;;;2.47;0.52;;;20.60;48.70;;;;;;10469297;28;20048;-45
2023/12/27 16:29:20;;;;;;;0.50;0.50;;;20.70;48.60;;;;;;10467044;28;20084;-44
2023/12/27 16:34:23;;;;;;;0.50;0.43;;;20.70;48.60;;;;;;10471062;28;20511;-47
2023/12/27 16:39:25;;;;;;;0.50;0.50;;;20.80;48.50;;;;;;10465329;28;20483;-49
2023/12/27 16:44:29;;;;;;;0.40;0.40;;;20.80;48.30;;;;;;10472660;28;20131;-44
2023/12/27 16:49:32;;;;;;;0.60;0.50;;;20.90;48.30;;;;;;10472717;28;20052;-46
2023/12/27 16:54:33;;;;;;;1.25;0.57;;;20.90;48.30;;;;;;10475855;28;20753;-48
2023/12/27 16:59:35;;;;;;;0.57;0.50;;;20.90;48.30;;;;;;10473580;28;20136;-47
2023/12/27 17:04:38;;;;;;;0.68;0.55;;;20.90;48.20;;;;;;10471306;28;20053;-46
2023/12/27 17:09:39;;;;;;;1.42;0.52;;;20.90;48.30;;;;;;10470763;28;20132;-45
2023/12/27 17:14:41;;;;;;;1.27;0.50;;;20.90;48.40;;;;;;10476179;28;20581;-45
2023/12/27 17:19:44;;;;;;;0.80;0.63;;;20.90;48.20;;;;;;10467214;28;20131;-45
2023/12/27 17:24:46;;;;;;;0.40;0.40;;;21.00;48.20;;;;;;10470272;28;20483;-45
2023/12/27 17:29:47;;;;;;;0.60;0.50;;;21.00;48.10;;;;;;10477945;28;20605;-45
2023/12/27 17:34:51;;;;;;;0.88;0.50;;;21.00;48.20;;;;;;10480302;28;20135;-45
2023/12/27 17:39:53;;;;;;;0.88;0.60;;;21.20;47.90;;;;;;10482050;28;20044;-45
2023/12/27 17:44:54;;;;;;;0.50;0.50;;;21.10;47.90;;;;;;10478605;28;20609;-44
2023/12/27 17:49:58;;;;;;;1.05;0.57;;;21.10;48.00;;;;;;10471441;28;20132;-45
2023/12/27 17:54:59;;;;;;;0.52;0.50;;;21.20;47.90;;;;;;10471463;28;20128;-48
2023/12/27 18:00:01;;;;;;;1.10;0.70;;;21.20;47.90;;;;;;10479573;28;20133;-49
2023/12/27 18:05:05;;;;;;;0.65;0.60;;;21.20;47.80;;;;;;10479594;28;20049;-45
2023/12/27 18:10:07;;;;;;;1.05;0.50;;;21.20;47.80;;;;;;10475958;28;20132;-47
2023/12/27 18:15:09;;;;;;;0.60;0.60;;;21.20;47.80;;;;;;10477738;28;20127;-45
2023/12/27 18:20:12;;;;;;;0.65;0.52;;;21.30;47.70;;;;;;10476793;28;20140;-46
2023/12/27 18:25:14;;;;;;;1.23;0.90;;;21.30;47.80;;;;;;10473794;28;20131;-44
2023/12/27 18:30:16;;;;;;;0.80;0.60;;;21.40;47.70;;;;;;10468157;28;20060;-45
2023/12/27 18:35:19;;;;;;;1.25;0.70;;;21.30;47.60;;;;;;10472069;28;20514;-45
2023/12/27 18:40:21;;;;;;;1.05;0.60;;;21.30;47.70;;;;;;10473179;28;20498;-48
2023/12/27 18:45:23;;;;;;;1.00;0.60;;;21.40;47.60;;;;;;10474739;28;20417;-45
2023/12/27 18:50:26;;;;;;;1.10;0.65;;;21.50;47.50;;;;;;10484116;28;20052;-47
2023/12/27 18:55:27;;;;;;;0.85;0.60;;;21.50;47.50;;;;;;10467298;28;20058;-44
2023/12/27 19:00:29;;;;;;;0.47;0.45;;;21.50;47.50;;;;;;10467452;28;20139;-45
2023/12/27 19:05:32;;;;;;;0.88;0.60;;;21.40;47.60;;;;;;10466918;28;20139;-45
2023/12/27 19:10:34;;;;;;;0.82;0.52;;;21.50;47.50;;;;;;10478275;28;20653;-45
2023/12/27 19:15:37;;;;;;;0.75;0.60;;;21.40;47.60;;;;;;10477674;28;20152;-45
2023/12/27 19:20:40;;;;;;;0.75;0.70;;;21.40;47.50;;;;;;10470255;28;20048;-44
2023/12/27 19:25:41;;;;;;;0.68;0.50;;;21.40;47.30;;;;;;10466732;28;20518;-50
2023/12/27 19:30:43;;;;;;;0.70;0.68;;;21.40;47.30;;;;;;10476355;28;20049;-47
2023/12/27 19:35:46;;;;;;;0.90;0.63;;;21.20;47.40;;;;;;10467527;28;20124;-45
2023/12/27 19:40:48;;;;;;;0.90;0.70;;;21.30;47.20;;;;;;10469700;28;20144;-48
2023/12/27 19:45:50;;;;;;;0.80;0.60;;;21.10;47.50;;;;;;10468109;28;20136;-45
2023/12/27 19:50:52;;;;;;;0.85;0.50;;;20.90;47.80;;;;;;10472412;28;20055;-45
2023/12/27 19:55:55;;;;;;;0.95;0.60;;;20.90;47.60;;;;;;10480025;28;20111;-49
2023/12/27 20:00:57;;;;;;;0.50;0.50;;;20.90;47.80;;;;;;10471358;28;20044;-49
2023/12/27 20:06:02;;;;;;;0.70;0.50;;;20.60;48.20;;;;;;10465632;28;20040;-47
2023/12/27 20:11:04;;;;;;;0.50;0.50;;;20.40;48.40;;;;;;10465203;28;20044;-45
2023/12/27 20:16:07;;;;;;;0.52;0.50;;;20.50;48.20;;;;;;10472210;28;20045;-45
2023/12/27 20:21:09;;;;;;;1.50;0.60;;;20.50;48.20;;;;;;10478055;28;20139;-45
2023/12/27 20:26:11;;;;;;;0.88;0.55;;;20.40;48.40;;;;;;10464281;28;20106;-45
2023/12/27 20:31:13;;;;;;;0.98;0.50;;;20.60;47.80;;;;;;10471657;28;20135;-45
2023/12/27 20:36:16;;;;;;;0.93;0.80;;;20.70;47.60;;;;;;10471674;28;20135;-48
2023/12/27 20:41:20;;;;;;;0.50;0.50;;;20.60;47.60;;;;;;10466065;28;20057;-45
2023/12/27 20:46:21;;;;;;;0.77;0.57;;;20.80;46.90;;;;;;10480676;28;20078;-47
2023/12/27 20:51:24;;;;;;;0.88;0.70;;;20.90;46.80;;;;;;10463905;28;20056;-48
2023/12/27 20:56:26;;;;;;;0.75;0.52;;;20.90;46.60;;;;;;10466189;28;20479;-47
2023/12/27 21:01:27;;;;;;;0.60;0.50;;;21.10;46.20;;;;;;10474137;28;20159;-45
2023/12/27 21:06:30;;;;;;;0.70;0.52;;;21.20;45.90;;;;;;10485231;28;20135;-50
2023/12/27 21:11:38;;;;;;;0.70;0.60;;;21.00;46.20;;;;;;10476588;28;20141;-45
2023/12/27 21:16:40;;;;;;;0.70;0.50;;;20.70;46.80;;;;;;10470145;28;20072;-45
2023/12/27 21:21:43;;;;;;;1.08;0.68;;;20.40;47.60;;;;;;10472874;28;20056;-49
2023/12/27 21:26:45;;;;;;;0.50;0.50;;;20.40;47.70;;;;;;10483269;28;20106;-51
2023/12/27 21:31:47;;;;;;;1.27;0.50;;;20.20;47.90;;;;;;10481474;28;20596;-47
2023/12/27 21:36:50;;;;;;;0.70;0.60;;;20.10;48.00;;;;;;10475237;28;20069;-46
2023/12/27 21:41:52;;;;;;;0.70;0.60;;;20.20;47.90;;;;;;10469440;28;20084;-47
2023/12/27 21:46:54;;;;;;;0.60;0.50;;;20.10;48.00;;;;;;10474865;28;20044;-45
2023/12/27 21:51:57;;;;;;;0.82;0.70;;;20.10;48.00;;;;;;10477395;28;20128;-45
2023/12/27 21:56:58;;;;;;;0.82;0.60;;;20.00;48.30;;;;;;10473788;28;20044;-45
2023/12/27 22:02:00;;;;;;;0.98;0.70;;;19.90;48.20;;;;;;10473141;28;20136;-46
2023/12/27 22:07:03;;;;;;;0.70;0.70;;;20.10;47.90;;;;;;10471419;28;20060;-48
2023/12/27 22:12:05;;;;;;;0.90;0.77;;;20.00;48.10;;;;;;10475263;28;20475;-46
2023/12/27 22:17:07;;;;;;;0.60;0.60;;;20.10;47.90;;;;;;10483223;28;20589;-47
2023/12/27 22:22:10;;;;;;;0.60;0.60;;;20.00;47.70;;;;;;10466939;28;20155;-44
2023/12/27 22:27:11;;;;;;;0.73;0.63;;;20.10;47.70;;;;;;10467322;28;20136;-49
2023/12/27 22:32:13;;;;;;;0.90;0.52;;;20.00;47.60;;;;;;10470318;28;20136;-44
2023/12/27 22:37:16;;;;;;;1.10;0.55;;;20.00;47.60;;;;;;10481122;28;20072;-45
2023/12/27 22:42:17;;;;;;;0.70;0.70;;;20.10;47.60;;;;;;10480415;28;20601;-45
2023/12/27 22:47:19;;;;;;;0.80;0.70;;;19.90;48.40;;;;;;10473152;28;20132;-45
2023/12/27 22:52:22;;;;;;;0.80;0.60;;;20.00;47.60;;;;;;10469904;28;20041;-45
2023/12/27 22:57:24;;;;;;;0.80;0.60;;;19.80;47.80;;;;;;10469013;28;20072;-44
2023/12/27 23:02:25;;;;;;;0.63;0.60;;;19.90;47.70;;;;;;10471850;28;20139;-45
2023/12/27 23:07:30;;;;;;;0.50;0.50;;;19.90;47.70;;;;;;10473568;28;20459;-45
2023/12/27 23:12:33;;;;;;;0.60;0.50;;;19.80;47.80;;;;;;10472271;28;20045;-46
2023/12/27 23:17:35;;;;;;;0.57;0.50;;;19.90;47.60;;;;;;10473593;28;20132;-44
2023/12/27 23:22:37;;;;;;;0.68;0.60;;;19.90;47.40;;;;;;10473378;28;20040;-45
2023/12/27 23:27:39;;;;;;;0.82;0.70;;;19.90;47.40;;;;;;10476336;28;20131;-45
2023/12/27 23:32:41;;;;;;;0.75;0.47;;;19.90;47.30;;;;;;10466495;28;20057;-44
2023/12/27 23:37:43;;;;;;;0.95;0.70;;;19.90;47.30;;;;;;10460751;28;20051;-48
2023/12/27 23:42:45;;;;;;;1.10;0.73;;;19.90;47.30;;;;;;10465861;28;20066;-45
2023/12/27 23:47:50;;;;;;;0.90;0.70;;;19.80;47.40;;;;;;10472496;28;20051;-47
2023/12/27 23:52:53;;;;;;;1.10;0.82;;;19.80;47.40;;;;;;10479476;28;20051;-44
2023/12/27 23:57:54;;;;;;;0.85;0.65;;;19.70;47.50;;;;;;10476464;28;20043;-45
